createdAt,value
2023-02-13T00:01:24.101Z,100830.38
2023-02-13T00:03:26.718Z,100833.77
2023-02-13T00:05:29.907Z,100830.52
2023-02-13T00:07:32.701Z,100828.88
2023-02-13T00:09:35.218Z,100823.79
2023-02-13T00:11:38.776Z,100822.37
2023-02-13T00:13:41.423Z,100819.33
2023-02-13T00:15:44.223Z,100815.42
2023-02-13T00:17:46.920Z,100812.48
2023-02-13T00:19:49.923Z,100813.52
2023-02-13T00:21:54.122Z,100808.79
2023-02-13T00:23:56.971Z,100808.83
2023-02-13T00:26:00.781Z,100810.54
2023-02-13T00:28:07.725Z,100812.98
2023-02-13T00:30:12.839Z,100812.48
2023-02-13T00:32:16.574Z,100815.45
2023-02-13T00:34:19.634Z,100811.39
2023-02-13T00:36:23.728Z,100816.91
2023-02-13T00:38:30.092Z,100811.81
2023-02-13T00:40:32.720Z,100815.14
2023-02-13T00:42:35.699Z,100811.59
2023-02-13T00:44:40.742Z,100814.23
2023-02-13T00:46:45.154Z,100815.14
2023-02-13T00:48:47.776Z,100813.70
2023-02-13T00:50:52.337Z,100816.54
2023-02-13T00:52:54.995Z,100818.04
2023-02-13T00:54:57.652Z,100819.45
2023-02-13T00:57:00.669Z,100818.08
2023-02-13T00:59:04.355Z,100817.13
2023-02-13T01:01:07.244Z,100824.23
2023-02-13T01:03:10.768Z,100825.68
2023-02-13T01:05:14.042Z,100824.83
2023-02-13T01:07:17.458Z,100824.78
2023-02-13T01:09:20.140Z,100826.17
2023-02-13T01:11:22.991Z,100827.23
2023-02-13T01:13:26.522Z,100828.76
2023-02-13T01:15:29.854Z,100824.39
2023-02-13T01:17:32.863Z,100829.06
2023-02-13T01:19:35.805Z,100827.38
2023-02-13T01:21:38.518Z,100824.25
2023-02-13T01:23:41.321Z,100821.11
2023-02-13T01:25:44.320Z,100824.71
2023-02-13T01:27:47.091Z,100827.67
2023-02-13T01:29:50.642Z,100825.75
2023-02-13T01:31:53.353Z,100823.91
2023-02-13T01:33:58.070Z,100824.70
2023-02-13T01:36:12.518Z,100823.91
2023-02-13T01:38:15.063Z,100830.01
2023-02-13T01:40:18.054Z,100820.73
2023-02-13T01:42:30.466Z,100818.88
2023-02-13T01:44:55.500Z,100815.17
2023-02-13T01:46:58.449Z,100810.11
2023-02-13T01:49:09.387Z,100814.17
2023-02-13T01:51:20.615Z,100810.63
2023-02-13T01:53:30.817Z,100811.61
2023-02-13T01:55:40.888Z,100810.66
2023-02-13T01:57:49.843Z,100814.38
2023-02-13T01:59:59.794Z,100815.38
2023-02-13T02:02:03.720Z,100815.34
2023-02-13T02:04:15.329Z,100812.41
2023-02-13T02:06:26.102Z,100807.14
2023-02-13T02:08:33.612Z,100807.56
2023-02-13T02:10:37.309Z,100803.11
2023-02-13T02:12:58.802Z,100806.54
2023-02-13T02:15:05.411Z,100803.50
2023-02-13T02:17:09.942Z,100802.84
2023-02-13T02:19:52.910Z,100802.81
2023-02-13T02:22:06.175Z,100796.02
2023-02-13T02:24:28.406Z,100796.98
2023-02-13T02:27:16.025Z,100801.20
2023-02-13T02:29:42.250Z,100800.05
2023-02-13T02:32:14.193Z,100798.32
2023-02-13T02:34:34.855Z,100799.78
2023-02-13T02:36:58.774Z,100803.19
2023-02-13T02:39:24.200Z,100811.13
2023-02-13T02:41:43.643Z,100812.02
2023-02-13T02:44:05.999Z,100811.20
2023-02-13T02:46:38.063Z,100807.36
2023-02-13T02:49:20.335Z,100809.67
2023-02-13T02:51:46.052Z,100807.07
2023-02-13T02:53:56.759Z,100808.32
2023-02-13T02:56:07.186Z,100809.37
2023-02-13T02:58:35.383Z,100809.70
2023-02-13T03:01:01.413Z,100803.94
2023-02-13T03:03:37.971Z,100808.79
2023-02-13T03:06:03.449Z,100812.30
2023-02-13T03:08:06.873Z,100815.35
2023-02-13T03:10:51.594Z,100817.56
2023-02-13T03:13:20.073Z,100812.79
2023-02-13T03:15:26.437Z,100813.73
2023-02-13T03:17:47.692Z,100810.38
2023-02-13T03:20:20.138Z,100814.16
2023-02-13T03:22:34.060Z,100816.48
2023-02-13T03:25:02.581Z,100817.05
2023-02-13T03:27:47.649Z,100816.61
2023-02-13T03:30:09.791Z,100820.04
2023-02-13T03:32:51.641Z,100815.30
2023-02-13T03:35:34.292Z,100818.70
2023-02-13T03:37:57.316Z,100815.12
2023-02-13T03:40:03.363Z,100817.22
2023-02-13T03:42:20.808Z,100817.38
2023-02-13T03:44:28.687Z,100817.56
2023-02-13T03:46:36.505Z,100819.13
2023-02-13T03:49:01.261Z,100819.34
2023-02-13T03:51:06.333Z,100814.42
2023-02-13T03:53:13.918Z,100815.67
2023-02-13T03:55:40.043Z,100813.46
2023-02-13T03:58:04.205Z,100814.73
2023-02-13T04:00:10.224Z,100815.70
2023-02-13T04:02:38.159Z,100814.45
2023-02-13T04:04:51.121Z,100818.36
2023-02-13T04:06:57.825Z,100817.75
2023-02-13T04:09:01.745Z,100821.89
2023-02-13T04:11:16.180Z,100816.06
2023-02-13T04:13:33.734Z,100816.67
2023-02-13T04:15:49.231Z,100819.48
2023-02-13T04:18:14.387Z,100819.20
2023-02-13T04:20:19.199Z,100822.81
2023-02-13T04:22:21.741Z,100819.66
2023-02-13T04:24:25.638Z,100823.39
2023-02-13T04:26:40.666Z,100822.21
2023-02-13T04:28:43.305Z,100824.98
2023-02-13T04:30:46.056Z,100826.16
2023-02-13T04:32:49.077Z,100826.50
2023-02-13T04:34:51.937Z,100824.79
2023-02-13T04:36:54.493Z,100821.85
2023-02-13T04:38:57.119Z,100823.72
2023-02-13T04:40:59.947Z,100826.77
2023-02-13T04:43:02.653Z,100822.37
2023-02-13T04:45:05.728Z,100815.55
2023-02-13T04:47:08.486Z,100814.25
2023-02-13T04:49:11.528Z,100814.06
2023-02-13T04:51:14.162Z,100812.44
2023-02-13T04:53:17.619Z,100809.23
2023-02-13T04:55:20.522Z,100808.99
2023-02-13T04:57:23.058Z,100806.00
2023-02-13T04:59:25.667Z,100808.12
2023-02-13T05:01:28.273Z,100809.54
2023-02-13T05:03:30.999Z,100809.12
2023-02-13T05:05:36.129Z,100814.70
2023-02-13T05:07:38.832Z,100806.31
2023-02-13T05:09:41.777Z,100805.16
2023-02-13T05:11:44.517Z,100810.06
2023-02-13T05:13:47.083Z,100811.88
2023-02-13T05:15:49.813Z,100809.73
2023-02-13T05:17:52.567Z,100811.27
2023-02-13T05:19:55.898Z,100810.26
2023-02-13T05:22:17.225Z,100811.21
2023-02-13T05:24:20.713Z,100812.71
2023-02-13T05:26:23.498Z,100813.45
2023-02-13T05:28:45.734Z,100810.20
2023-02-13T05:30:48.402Z,100814.40
2023-02-13T05:32:51.967Z,100814.66
2023-02-13T05:34:54.578Z,100820.34
2023-02-13T05:36:57.367Z,100819.00
2023-02-13T05:39:00.512Z,100820.32
2023-02-13T05:41:03.328Z,100821.21
2023-02-13T05:43:06.019Z,100822.45
2023-02-13T05:45:10.166Z,100825.25
2023-02-13T05:47:12.921Z,100821.39
2023-02-13T05:49:16.095Z,100826.08
2023-02-13T05:51:19.653Z,100822.69
2023-02-13T05:53:23.153Z,100820.30
2023-02-13T05:55:25.674Z,100823.89
2023-02-13T05:57:28.430Z,100824.41
2023-02-13T05:59:31.147Z,100821.13
2023-02-13T06:01:36.131Z,100821.74
2023-02-13T06:03:40.415Z,100822.41
2023-02-13T06:05:44.360Z,100826.20
2023-02-13T06:07:47.073Z,100829.52
2023-02-13T06:09:49.597Z,100827.70
2023-02-13T06:11:52.835Z,100826.99
2023-02-13T06:13:55.383Z,100828.48
2023-02-13T06:15:58.436Z,100833.43
2023-02-13T06:18:01.419Z,100835.91
2023-02-13T06:20:04.860Z,100840.40
2023-02-13T06:22:08.120Z,100845.33
2023-02-13T06:24:10.802Z,100848.10
2023-02-13T06:26:14.932Z,100848.44
2023-02-13T06:28:17.497Z,100856.84
2023-02-13T06:30:20.441Z,100857.36
2023-02-13T06:32:23.057Z,100860.02
2023-02-13T06:34:26.374Z,100859.30
2023-02-13T06:36:29.031Z,100858.99
2023-02-13T06:38:32.098Z,100862.00
2023-02-13T06:40:34.644Z,100864.89
2023-02-13T06:42:40.055Z,100865.64
2023-02-13T06:44:45.138Z,100866.95
2023-02-13T06:46:47.768Z,100868.28
2023-02-13T06:48:50.397Z,100869.70
2023-02-13T06:50:53.142Z,100871.95
2023-02-13T06:52:55.817Z,100876.32
2023-02-13T06:54:58.683Z,100875.42
2023-02-13T06:57:01.317Z,100875.31
2023-02-13T06:59:05.088Z,100874.73
2023-02-13T07:01:07.819Z,100879.83
2023-02-13T07:03:10.932Z,100877.80
2023-02-13T07:05:14.126Z,100876.98
2023-02-13T07:07:16.987Z,100881.95
2023-02-13T07:09:19.753Z,100877.67
2023-02-13T07:11:24.791Z,100878.23
2023-02-13T07:13:28.029Z,100876.41
2023-02-13T07:15:31.626Z,100876.50
2023-02-13T07:17:34.478Z,100876.37
2023-02-13T07:19:37.480Z,100876.50
2023-02-13T07:21:40.274Z,100881.50
2023-02-13T07:23:42.936Z,100879.21
2023-02-13T07:25:45.818Z,100881.30
2023-02-13T07:27:48.374Z,100879.73
2023-02-13T07:29:51.052Z,100878.48
2023-02-13T07:31:53.978Z,100878.70
2023-02-13T07:33:56.926Z,100882.36
2023-02-13T07:35:59.774Z,100885.97
2023-02-13T07:38:04.836Z,100885.35
2023-02-13T07:40:08.027Z,100884.77
2023-02-13T07:42:10.973Z,100888.42
2023-02-13T07:44:16.474Z,100885.81
2023-02-13T07:46:22.219Z,100888.34
2023-02-13T07:48:28.953Z,100891.16
2023-02-13T07:50:32.400Z,100888.59
2023-02-13T07:52:37.968Z,100891.80
2023-02-13T07:54:47.523Z,100896.88
2023-02-13T07:56:50.648Z,100897.11
2023-02-13T07:58:53.592Z,100895.48
2023-02-13T08:00:56.795Z,100899.69
2023-02-13T08:03:00.598Z,100898.23
2023-02-13T08:05:03.474Z,100900.02
2023-02-13T08:07:07.384Z,100897.91
2023-02-13T08:09:39.539Z,100896.59
2023-02-13T08:11:55.653Z,100891.81
2023-02-13T08:13:58.227Z,100893.03
2023-02-13T08:16:01.313Z,100893.85
2023-02-13T08:18:04.014Z,100891.69
2023-02-13T08:20:09.010Z,100891.02
2023-02-13T08:22:12.496Z,100886.36
2023-02-13T08:24:16.916Z,100888.17
2023-02-13T08:26:19.460Z,100889.05
2023-02-13T08:28:22.056Z,100883.63
2023-02-13T08:30:25.937Z,100886.48
2023-02-13T08:32:28.594Z,100883.84
2023-02-13T08:34:32.278Z,100883.86
2023-02-13T08:36:35.582Z,100884.90
2023-02-13T08:38:38.241Z,100885.02
2023-02-13T08:40:41.157Z,100883.93
2023-02-13T08:42:45.270Z,100887.42
2023-02-13T08:44:47.999Z,100890.70
2023-02-13T08:46:53.449Z,100888.96
2023-02-13T08:48:58.285Z,100888.70
2023-02-13T08:51:01.303Z,100891.77
2023-02-13T08:53:05.557Z,100892.20
2023-02-13T08:55:10.122Z,100888.83
2023-02-13T08:57:13.048Z,100889.55
2023-02-13T08:59:15.561Z,100887.80
2023-02-13T09:01:18.921Z,100890.52
2023-02-13T09:03:21.617Z,100890.52
2023-02-13T09:05:25.068Z,100892.60
2023-02-13T09:07:28.314Z,100894.67
2023-02-13T09:09:34.620Z,100895.90
2023-02-13T09:11:37.650Z,100895.51
2023-02-13T09:13:40.582Z,100898.04
2023-02-13T09:15:45.586Z,100899.02
2023-02-13T09:17:54.887Z,100898.59
2023-02-13T09:19:57.585Z,100902.98
2023-02-13T09:22:00.316Z,100900.20
2023-02-13T09:24:06.764Z,100899.45
2023-02-13T09:26:12.787Z,100900.77
2023-02-13T09:28:15.559Z,100906.29
2023-02-13T09:30:25.676Z,100903.39
2023-02-13T09:32:28.673Z,100906.08
2023-02-13T09:34:31.372Z,100908.23
2023-02-13T09:36:34.020Z,100912.34
2023-02-13T09:38:37.115Z,100912.67
2023-02-13T09:40:44.000Z,100913.91
2023-02-13T09:42:50.002Z,100915.23
2023-02-13T09:44:58.985Z,100914.76
2023-02-13T09:47:07.988Z,100914.27
2023-02-13T09:49:20.890Z,100914.26
2023-02-13T09:51:25.805Z,100909.77
2023-02-13T09:53:30.056Z,100913.90
2023-02-13T09:55:52.792Z,100916.16
2023-02-13T09:58:16.359Z,100916.17
2023-02-13T10:00:29.560Z,100916.21
2023-02-13T10:02:57.594Z,100921.83
2023-02-13T10:05:17.502Z,100921.77
2023-02-13T10:07:47.184Z,100924.45
2023-02-13T10:10:03.182Z,100924.48
2023-02-13T10:12:43.316Z,100919.40
2023-02-13T10:15:02.738Z,100922.03
2023-02-13T10:17:14.995Z,100918.45
2023-02-13T10:19:40.212Z,100920.70
2023-02-13T10:21:53.968Z,100916.15
2023-02-13T10:24:31.722Z,100918.43
2023-02-13T10:26:45.729Z,100917.88
2023-02-13T10:29:23.300Z,100911.52
2023-02-13T10:31:26.428Z,100916.48
2023-02-13T10:33:36.286Z,100916.36
2023-02-13T10:35:39.485Z,100916.58
2023-02-13T10:37:42.434Z,100919.23
2023-02-13T10:39:48.883Z,100917.75
2023-02-13T10:41:54.360Z,100914.04
2023-02-13T10:44:10.920Z,100912.45
2023-02-13T10:46:36.820Z,100909.98
2023-02-13T10:48:59.492Z,100908.98
2023-02-13T10:51:16.416Z,100907.19
2023-02-13T10:53:32.334Z,100906.27
2023-02-13T10:56:00.388Z,100903.46
2023-02-13T10:58:43.125Z,100900.54
2023-02-13T11:01:09.635Z,100898.02
2023-02-13T11:03:24.375Z,100898.13
2023-02-13T11:05:36.018Z,100897.73
2023-02-13T11:07:39.675Z,100899.13
2023-02-13T11:09:50.252Z,100896.92
2023-02-13T11:11:55.176Z,100893.07
2023-02-13T11:14:26.423Z,100890.21
2023-02-13T11:16:39.794Z,100889.91
2023-02-13T11:18:50.172Z,100888.50
2023-02-13T11:21:19.089Z,100885.91
2023-02-13T11:23:30.762Z,100883.56
2023-02-13T11:25:39.215Z,100885.91
2023-02-13T11:27:42.759Z,100888.19
2023-02-13T11:29:52.267Z,100890.63
2023-02-13T11:32:03.543Z,100889.30
2023-02-13T11:34:28.367Z,100892.86
2023-02-13T11:36:34.145Z,100890.74
2023-02-13T11:38:36.884Z,100890.99
2023-02-13T11:40:41.782Z,100888.70
2023-02-13T11:42:51.189Z,100889.27
2023-02-13T11:45:21.971Z,100885.31
2023-02-13T11:47:43.168Z,100880.08
2023-02-13T11:49:48.035Z,100877.95
2023-02-13T11:52:01.783Z,100877.05
2023-02-13T11:54:06.717Z,100874.20
2023-02-13T11:56:15.862Z,100873.20
2023-02-13T11:58:27.543Z,100873.09
2023-02-13T12:00:37.848Z,100872.75
2023-02-13T12:02:52.427Z,100872.20
2023-02-13T12:05:16.335Z,100872.06
2023-02-13T12:07:27.689Z,100868.15
2023-02-13T12:09:32.402Z,100868.90
2023-02-13T12:11:42.908Z,100866.67
2023-02-13T12:13:56.046Z,100869.05
2023-02-13T12:16:15.376Z,100867.39
2023-02-13T12:18:44.958Z,100868.58
2023-02-13T12:21:00.961Z,100861.91
2023-02-13T12:23:20.286Z,100863.52
2023-02-13T12:25:49.282Z,100860.29
2023-02-13T12:28:08.264Z,100855.27
2023-02-13T12:30:37.919Z,100853.85
2023-02-13T12:33:08.754Z,100851.46
2023-02-13T12:35:55.984Z,100847.02
2023-02-13T12:38:07.361Z,100839.25
2023-02-13T12:40:44.723Z,100835.95
2023-02-13T12:42:55.548Z,100834.89
2023-02-13T12:45:08.455Z,100832.28
2023-02-13T12:47:27.315Z,100830.09
2023-02-13T12:49:45.486Z,100824.65
2023-02-13T12:52:10.363Z,100822.48
2023-02-13T12:54:15.693Z,100820.21
2023-02-13T12:57:03.405Z,100821.65
2023-02-13T12:59:48.537Z,100820.62
2023-02-13T13:02:38.870Z,100817.92
2023-02-13T13:05:13.628Z,100816.66
2023-02-13T13:07:39.336Z,100816.95
2023-02-13T13:09:55.991Z,100816.71
2023-02-13T13:12:25.950Z,100814.84
2023-02-13T13:14:32.722Z,100815.39
2023-02-13T13:17:18.886Z,100813.19
2023-02-13T13:20:04.841Z,100806.52
2023-02-13T13:22:15.111Z,100806.84
2023-02-13T13:25:07.996Z,100811.24
2023-02-13T13:27:22.025Z,100805.64
2023-02-13T13:29:32.726Z,100801.38
2023-02-13T13:31:37.853Z,100798.05
2023-02-13T13:33:46.987Z,100800.81
2023-02-13T13:36:41.103Z,100799.57
2023-02-13T13:39:16.852Z,100803.23
2023-02-13T13:42:02.746Z,100796.42
2023-02-13T13:44:44.750Z,100793.29
2023-02-13T13:47:06.798Z,100792.73
2023-02-13T13:49:39.851Z,100790.08
2023-02-13T13:51:43.471Z,100788.57
2023-02-13T13:54:15.035Z,100790.53
2023-02-13T13:56:18.955Z,100787.38
2023-02-13T13:58:36.676Z,100787.66
2023-02-13T14:00:39.245Z,100790.92
2023-02-13T14:02:51.354Z,100789.07
2023-02-13T14:05:02.807Z,100794.57
2023-02-13T14:07:14.847Z,100795.36
2023-02-13T14:09:30.615Z,100795.20
2023-02-13T14:11:39.870Z,100790.90
2023-02-13T14:13:45.885Z,100788.55
2023-02-13T14:15:52.289Z,100786.36
2023-02-13T14:17:56.687Z,100787.95
2023-02-13T14:20:00.092Z,100786.42
2023-02-13T14:22:24.812Z,100783.95
2023-02-13T14:24:27.888Z,100788.66
2023-02-13T14:26:36.433Z,100790.73
2023-02-13T14:28:42.596Z,100791.41
2023-02-13T14:30:46.653Z,100789.58
2023-02-13T14:32:57.382Z,100786.71
2023-02-13T14:35:20.816Z,100780.05
2023-02-13T14:37:36.880Z,100769.41
2023-02-13T14:39:43.600Z,100764.63
2023-02-13T14:41:56.092Z,100759.46
2023-02-13T14:43:59.972Z,100756.88
2023-02-13T14:46:28.888Z,100753.55
2023-02-13T14:48:57.428Z,100755.41
2023-02-13T14:51:01.716Z,100757.55
2023-02-13T14:53:16.010Z,100752.09
2023-02-13T14:55:40.832Z,100751.81
2023-02-13T14:57:49.341Z,100748.72
2023-02-13T14:59:58.317Z,100748.92
2023-02-13T15:02:13.302Z,100745.69
2023-02-13T15:04:21.320Z,100743.02
2023-02-13T15:06:36.004Z,100743.63
2023-02-13T15:08:49.574Z,100744.67
2023-02-13T15:10:57.457Z,100742.90
2023-02-13T15:13:08.409Z,100740.66
2023-02-13T15:15:27.837Z,100738.14
2023-02-13T15:17:38.705Z,100736.23
2023-02-13T15:19:50.380Z,100733.01
2023-02-13T15:22:03.316Z,100727.55
2023-02-13T15:24:14.494Z,100724.56
2023-02-13T15:26:23.889Z,100722.76
2023-02-13T15:28:28.348Z,100719.92
2023-02-13T15:30:39.096Z,100724.05
2023-02-13T15:32:43.324Z,100729.05
2023-02-13T15:34:53.876Z,100733.46
2023-02-13T15:37:01.770Z,100736.72
2023-02-13T15:39:11.035Z,100738.89
2023-02-13T15:41:20.224Z,100737.77
2023-02-13T15:43:44.744Z,100733.16
2023-02-13T15:45:47.465Z,100733.44
2023-02-13T15:47:56.085Z,100732.34
2023-02-13T15:49:59.917Z,100730.78
2023-02-13T15:52:18.062Z,100734.93
2023-02-13T15:54:29.432Z,100732.62
2023-02-13T15:56:40.942Z,100732.27
2023-02-13T15:58:46.761Z,100732.83
2023-02-13T16:00:50.163Z,100728.11
2023-02-13T16:02:57.173Z,100730.87
2023-02-13T16:05:04.950Z,100730.77
2023-02-13T16:07:12.406Z,100732.85
2023-02-13T16:09:36.145Z,100733.96
2023-02-13T16:11:40.734Z,100730.27
2023-02-13T16:13:59.190Z,100723.41
2023-02-13T16:16:10.057Z,100717.96
2023-02-13T16:18:21.196Z,100716.63
2023-02-13T16:20:28.181Z,100711.41
2023-02-13T16:22:37.026Z,100716.12
2023-02-13T16:24:39.765Z,100716.54
2023-02-13T16:26:44.374Z,100712.51
2023-02-13T16:28:47.877Z,100712.38
2023-02-13T16:31:03.066Z,100715.19
2023-02-13T16:33:21.443Z,100715.58
2023-02-13T16:35:30.608Z,100721.36
2023-02-13T16:37:36.291Z,100723.54
2023-02-13T16:39:40.765Z,100728.56
2023-02-13T16:41:43.684Z,100732.14
2023-02-13T16:43:54.281Z,100731.02
2023-02-13T16:46:11.264Z,100734.76
2023-02-13T16:48:17.487Z,100731.95
2023-02-13T16:50:20.574Z,100734.38
2023-02-13T16:52:28.527Z,100735.36
2023-02-13T16:54:38.132Z,100735.48
2023-02-13T16:56:54.406Z,100737.40
2023-02-13T16:59:42.690Z,100742.09
2023-02-13T17:01:45.534Z,100744.06
2023-02-13T17:03:48.512Z,100747.84
2023-02-13T17:05:52.001Z,100749.01
2023-02-13T17:07:57.973Z,100746.59
2023-02-13T17:10:19.352Z,100747.54
2023-02-13T17:12:23.065Z,100747.73
2023-02-13T17:14:28.596Z,100744.82
2023-02-13T17:16:31.146Z,100749.52
2023-02-13T17:18:33.993Z,100745.52
2023-02-13T17:20:40.211Z,100743.80
2023-02-13T17:22:45.604Z,100747.17
2023-02-13T17:24:49.597Z,100747.55
2023-02-13T17:26:53.077Z,100744.48
2023-02-13T17:28:56.999Z,100744.42
2023-02-13T17:31:01.046Z,100741.95
2023-02-13T17:33:13.741Z,100745.27
2023-02-13T17:35:17.384Z,100743.72
2023-02-13T17:37:21.624Z,100747.21
2023-02-13T17:39:26.238Z,100750.61
2023-02-13T17:41:30.279Z,100750.48
2023-02-13T17:43:32.827Z,100752.36
2023-02-13T17:45:37.397Z,100753.39
2023-02-13T17:47:40.585Z,100750.87
2023-02-13T17:49:43.557Z,100754.80
2023-02-13T17:51:46.675Z,100751.70
2023-02-13T17:53:50.221Z,100748.48
2023-02-13T17:55:56.643Z,100749.11
2023-02-13T17:58:01.576Z,100749.01
2023-02-13T18:00:04.928Z,100746.48
2023-02-13T18:02:23.498Z,100748.48
2023-02-13T18:04:26.179Z,100755.48
2023-02-13T18:06:28.809Z,100754.36
2023-02-13T18:08:31.994Z,100753.65
2023-02-13T18:10:37.474Z,100753.61
2023-02-13T18:12:40.802Z,100757.02
2023-02-13T18:14:43.785Z,100758.36
2023-02-13T18:16:46.492Z,100756.38
2023-02-13T18:18:49.073Z,100757.21
2023-02-13T18:20:58.523Z,100763.85
2023-02-13T18:23:01.834Z,100759.15
2023-02-13T18:25:06.697Z,100763.27
2023-02-13T18:27:11.325Z,100763.99
2023-02-13T18:29:13.940Z,100766.63
2023-02-13T18:31:16.952Z,100765.95
2023-02-13T18:33:19.550Z,100774.37
2023-02-13T18:35:23.136Z,100767.96
2023-02-13T18:37:28.450Z,100767.66
2023-02-13T18:39:34.157Z,100770.34
2023-02-13T18:41:37.398Z,100768.30
2023-02-13T18:43:40.004Z,100769.70
2023-02-13T18:45:43.285Z,100770.92
2023-02-13T18:47:46.350Z,100768.65
2023-02-13T18:49:49.014Z,100768.70
2023-02-13T18:51:52.310Z,100760.68
2023-02-13T18:53:55.169Z,100754.90
2023-02-13T18:56:05.789Z,100752.00
2023-02-13T18:58:08.607Z,100748.61
2023-02-13T19:00:14.187Z,100747.90
2023-02-13T19:02:16.909Z,100748.35
2023-02-13T19:04:19.532Z,100753.08
2023-02-13T19:06:24.351Z,100755.50
2023-02-13T19:08:28.074Z,100754.21
2023-02-13T19:10:32.065Z,100751.30
2023-02-13T19:12:35.044Z,100750.88
2023-02-13T19:14:39.739Z,100749.66
2023-02-13T19:16:43.290Z,100746.99
2023-02-13T19:18:54.076Z,100748.35
2023-02-13T19:21:01.496Z,100747.42
2023-02-13T19:23:04.157Z,100746.82
2023-02-13T19:25:06.912Z,100749.52
2023-02-13T19:27:09.840Z,100754.88
2023-02-13T19:29:13.331Z,100754.84
2023-02-13T19:31:18.836Z,100758.14
2023-02-13T19:33:24.707Z,100754.25
2023-02-13T19:35:27.541Z,100754.25
2023-02-13T19:37:33.190Z,100753.20
2023-02-13T19:39:46.002Z,100749.07
2023-02-13T19:41:48.748Z,100745.94
2023-02-13T19:43:53.537Z,100746.03
2023-02-13T19:46:12.856Z,100748.88
2023-02-13T19:48:16.046Z,100746.96
2023-02-13T19:50:18.796Z,100743.70
2023-02-13T19:52:21.473Z,100746.64
2023-02-13T19:54:24.524Z,100748.55
2023-02-13T19:56:29.344Z,100748.20
2023-02-13T19:58:32.646Z,100745.23
2023-02-13T20:00:35.288Z,100742.95
2023-02-13T20:02:40.591Z,100746.08
2023-02-13T20:04:45.242Z,100747.02
2023-02-13T20:06:51.189Z,100748.88
2023-02-13T20:08:59.824Z,100751.13
2023-02-13T20:11:05.988Z,100752.09
2023-02-13T20:13:08.874Z,100751.73
2023-02-13T20:15:12.227Z,100752.89
2023-02-13T20:17:15.216Z,100752.16
2023-02-13T20:19:18.778Z,100753.75
2023-02-13T20:21:22.016Z,100755.69
2023-02-13T20:23:24.936Z,100756.55
2023-02-13T20:25:32.008Z,100756.77
2023-02-13T20:27:41.610Z,100755.73
2023-02-13T20:29:44.815Z,100758.00
2023-02-13T20:31:47.417Z,100753.91
2023-02-13T20:33:51.234Z,100748.64
2023-02-13T20:35:54.116Z,100749.64
2023-02-13T20:37:59.149Z,100742.69
2023-02-13T20:40:01.901Z,100741.77
2023-02-13T20:42:04.892Z,100747.75
2023-02-13T20:44:11.601Z,100750.09
2023-02-13T20:46:17.915Z,100752.61
2023-02-13T20:48:21.409Z,100753.17
2023-02-13T20:50:24.089Z,100756.73
2023-02-13T20:52:27.478Z,100754.50
2023-02-13T20:54:30.089Z,100750.97
2023-02-13T20:56:33.198Z,100753.97
2023-02-13T20:58:37.260Z,100752.61
2023-02-13T21:00:40.855Z,100753.80
2023-02-13T21:02:43.761Z,100760.08
2023-02-13T21:04:47.604Z,100756.83
2023-02-13T21:06:50.507Z,100755.42
2023-02-13T21:08:54.103Z,100757.45
2023-02-13T21:11:07.767Z,100758.22
2023-02-13T21:13:10.597Z,100756.78
2023-02-13T21:15:13.273Z,100752.16
2023-02-13T21:17:15.948Z,100750.07
2023-02-13T21:19:20.316Z,100751.70
2023-02-13T21:21:24.966Z,100752.05
2023-02-13T21:23:28.082Z,100753.81
2023-02-13T21:25:31.496Z,100753.08
2023-02-13T21:27:34.746Z,100752.83
2023-02-13T21:29:38.285Z,100758.15
2023-02-13T21:31:50.863Z,100761.26
2023-02-13T21:33:54.169Z,100760.48
2023-02-13T21:36:01.496Z,100764.72
2023-02-13T21:38:04.262Z,100763.16
2023-02-13T21:40:07.517Z,100763.01
2023-02-13T21:42:10.461Z,100762.08
2023-02-13T21:44:15.704Z,100762.70
2023-02-13T21:46:24.141Z,100767.73
2023-02-13T21:48:26.705Z,100771.49
2023-02-13T21:50:29.339Z,100770.77
2023-02-13T21:52:32.464Z,100774.52
2023-02-13T21:54:35.224Z,100775.30
2023-02-13T21:56:40.765Z,100771.27
2023-02-13T21:58:44.432Z,100761.09
2023-02-13T22:00:47.164Z,100760.41
2023-02-13T22:02:49.796Z,100758.90
2023-02-13T22:04:52.434Z,100759.17
2023-02-13T22:06:55.298Z,100763.19
2023-02-13T22:09:05.621Z,100765.17
2023-02-13T22:11:08.289Z,100766.08
2023-02-13T22:13:10.984Z,100767.23
2023-02-13T22:15:14.183Z,100764.42
2023-02-13T22:17:21.876Z,100767.30
2023-02-13T22:19:25.901Z,100765.16
2023-02-13T22:21:30.362Z,100764.34
2023-02-13T22:23:36.467Z,100760.54
2023-02-13T22:25:39.317Z,100763.73
2023-02-13T22:27:47.981Z,100765.45
2023-02-13T22:29:51.343Z,100767.36
2023-02-13T22:31:54.089Z,100764.95
2023-02-13T22:34:05.388Z,100763.84
2023-02-13T22:36:09.094Z,100760.77
2023-02-13T22:38:11.975Z,100757.23
2023-02-13T22:40:14.872Z,100760.26
2023-02-13T22:42:17.824Z,100756.15
2023-02-13T22:44:20.917Z,100756.73
2023-02-13T22:46:32.078Z,100755.19
2023-02-13T22:48:37.849Z,100755.15
2023-02-13T22:50:41.213Z,100751.43
2023-02-13T22:52:43.771Z,100751.21
2023-02-13T22:54:46.414Z,100753.86
2023-02-13T22:56:49.241Z,100757.20
2023-02-13T22:58:52.218Z,100754.29
2023-02-13T23:00:55.136Z,100760.19
2023-02-13T23:02:57.849Z,100758.45
2023-02-13T23:05:00.473Z,100756.41
2023-02-13T23:07:03.305Z,100762.13
2023-02-13T23:09:05.881Z,100765.30
2023-02-13T23:11:33.655Z,100768.16
2023-02-13T23:13:36.786Z,100769.23
2023-02-13T23:15:39.870Z,100772.61
2023-02-13T23:18:02.090Z,100770.41
2023-02-13T23:20:07.257Z,100772.19
2023-02-13T23:22:13.440Z,100774.73
2023-02-13T23:24:16.559Z,100772.14
2023-02-13T23:26:19.631Z,100771.52
2023-02-13T23:28:23.772Z,100768.60
2023-02-13T23:30:29.106Z,100767.05
2023-02-13T23:32:32.263Z,100769.99
2023-02-13T23:34:36.580Z,100770.66
2023-02-13T23:36:39.312Z,100773.39
2023-02-13T23:38:44.805Z,100771.45
2023-02-13T23:40:48.330Z,100771.18
2023-02-13T23:42:51.564Z,100770.95
2023-02-13T23:44:54.338Z,100773.42
2023-02-13T23:46:57.142Z,100777.01
2023-02-13T23:49:00.499Z,100780.56
2023-02-13T23:51:06.375Z,100775.33
2023-02-13T23:53:09.888Z,100771.40
2023-02-13T23:55:13.583Z,100772.59
2023-02-13T23:57:16.256Z,100771.34
2023-02-13T23:59:21.819Z,100773.08
